createdAt,value
2023-04-02T00:00:18.079Z,100610.11
2023-04-02T00:01:19.091Z,100609.48
2023-04-02T00:02:19.123Z,100613.06
2023-04-02T00:03:12.113Z,100613.04
2023-04-02T00:04:20.169Z,100613.53
2023-04-02T00:05:19.089Z,100614.25
2023-04-02T00:06:19.076Z,100620.16
2023-04-02T00:07:19.102Z,100622.84
2023-04-02T00:08:24.078Z,100624.59
2023-04-02T00:09:19.076Z,100627.39
2023-04-02T00:10:19.088Z,100632.80
2023-04-02T00:11:11.077Z,100633.55
2023-04-02T00:12:16.092Z,100635.19
2023-04-02T00:13:21.110Z,100634.41
2023-04-02T00:14:19.083Z,100636.29
2023-04-02T00:15:14.091Z,100635.68
2023-04-02T00:16:13.091Z,100641.74
2023-04-02T00:17:11.080Z,100642.87
2023-04-02T00:18:14.115Z,100640.82
2023-04-02T00:19:16.076Z,100643.70
2023-04-02T00:20:16.083Z,100643.88
2023-04-02T00:21:19.095Z,100645.20
2023-04-02T00:22:20.102Z,100644.27
2023-04-02T00:23:13.082Z,100641.52
2023-04-02T00:24:15.078Z,100644.93
2023-04-02T00:25:14.098Z,100646.57
2023-04-02T00:26:19.081Z,100647.24
2023-04-02T00:27:13.078Z,100651.54
2023-04-02T00:28:19.079Z,100652.56
2023-04-02T00:29:15.100Z,100652.02
2023-04-02T00:30:12.081Z,100651.70
2023-04-02T00:31:12.079Z,100656.66
2023-04-02T00:32:19.187Z,100653.64
2023-04-02T00:33:17.101Z,100659.95
2023-04-02T00:34:15.082Z,100656.00
2023-04-02T00:35:19.096Z,100658.64
2023-04-02T00:36:11.166Z,100659.98
2023-04-02T00:37:21.093Z,100662.41
2023-04-02T00:38:19.089Z,100665.95
2023-04-02T00:39:16.080Z,100666.77
2023-04-02T00:40:19.086Z,100668.36
2023-04-02T00:41:14.083Z,100670.75
2023-04-02T00:42:13.079Z,100673.70
2023-04-02T00:43:11.081Z,100674.16
2023-04-02T00:44:15.088Z,100674.66
2023-04-02T00:45:21.081Z,100678.55
2023-04-02T00:46:16.115Z,100675.45
2023-04-02T00:47:19.085Z,100678.21
2023-04-02T00:48:19.088Z,100680.82
2023-04-02T00:49:18.082Z,100685.45
2023-04-02T00:50:19.081Z,100684.79
2023-04-02T00:51:17.080Z,100689.06
2023-04-02T00:52:16.085Z,100691.41
2023-04-02T00:53:17.092Z,100691.63
2023-04-02T00:54:12.078Z,100692.48
2023-04-02T00:55:19.080Z,100692.80
2023-04-02T00:56:19.107Z,100695.42
2023-04-02T00:57:16.112Z,100696.47
2023-04-02T00:58:19.084Z,100697.77
2023-04-02T00:59:19.086Z,100700.52
2023-04-02T01:00:24.081Z,100695.67
2023-04-02T01:01:17.133Z,100701.22
2023-04-02T01:02:19.124Z,100703.36
2023-04-02T01:03:19.171Z,100701.50
2023-04-02T01:04:21.068Z,100705.60
2023-04-02T01:05:21.070Z,100702.96
2023-04-02T01:06:14.071Z,100702.62
2023-04-02T01:07:11.089Z,100703.55
2023-04-02T01:08:19.079Z,100704.09
2023-04-02T01:09:21.075Z,100705.18
2023-04-02T01:10:21.067Z,100707.33
2023-04-02T01:11:19.066Z,100707.05
2023-04-02T01:12:21.069Z,100704.04
2023-04-02T01:13:19.068Z,100710.20
2023-04-02T01:14:19.068Z,100705.79
2023-04-02T01:15:17.108Z,100711.90
2023-04-02T01:16:21.080Z,100708.00
2023-04-02T01:17:19.063Z,100708.81
2023-04-02T01:18:19.072Z,100706.68
2023-04-02T01:19:19.072Z,100709.30
2023-04-02T01:20:20.067Z,100711.52
2023-04-02T01:21:19.060Z,100708.67
2023-04-02T01:22:19.063Z,100715.98
2023-04-02T01:23:19.063Z,100710.24
2023-04-02T01:24:12.074Z,100710.21
2023-04-02T01:25:18.064Z,100712.61
2023-04-02T01:26:21.062Z,100713.78
2023-04-02T01:27:19.064Z,100712.43
2023-04-02T01:28:19.071Z,100707.53
2023-04-02T01:29:21.079Z,100715.70
2023-04-02T01:30:11.069Z,100722.21
2023-04-02T01:31:11.079Z,100720.54
2023-04-02T01:32:14.067Z,100723.34
2023-04-02T01:33:11.065Z,100725.50
2023-04-02T01:34:17.069Z,100723.78
2023-04-02T01:35:11.062Z,100726.11
2023-04-02T01:36:21.088Z,100725.54
2023-04-02T01:37:19.060Z,100724.97
2023-04-02T01:38:17.063Z,100727.48
2023-04-02T01:39:19.070Z,100729.27
2023-04-02T01:40:19.073Z,100728.67
2023-04-02T01:41:19.062Z,100733.42
2023-04-02T01:42:18.058Z,100732.61
2023-04-02T01:43:19.078Z,100735.33
2023-04-02T01:44:13.074Z,100732.28
2023-04-02T01:45:12.072Z,100735.46
2023-04-02T01:46:19.082Z,100733.47
2023-04-02T01:47:15.062Z,100736.95
2023-04-02T01:48:16.063Z,100737.30
2023-04-02T01:49:15.065Z,100737.48
2023-04-02T01:50:19.066Z,100734.52
2023-04-02T01:51:15.066Z,100739.82
2023-04-02T01:52:15.067Z,100740.38
2023-04-02T01:53:15.068Z,100738.13
2023-04-02T01:54:11.063Z,100733.84
2023-04-02T01:55:12.070Z,100735.69
2023-04-02T01:56:11.087Z,100735.83
2023-04-02T01:57:11.139Z,100737.34
2023-04-02T01:58:11.071Z,100745.76
2023-04-02T01:59:11.079Z,100740.64
2023-04-02T02:00:17.106Z,100737.18
2023-04-02T02:01:16.072Z,100740.82
2023-04-02T02:02:13.141Z,100740.26
2023-04-02T02:03:12.128Z,100743.95
2023-04-02T02:04:13.069Z,100745.79
2023-04-02T02:05:15.064Z,100746.42
2023-04-02T02:06:13.065Z,100744.88
2023-04-02T02:07:19.066Z,100748.96
2023-04-02T02:08:21.074Z,100747.80
2023-04-02T02:09:17.064Z,100751.44
2023-04-02T02:10:15.067Z,100754.21
2023-04-02T02:11:14.067Z,100752.23
2023-04-02T02:12:13.065Z,100753.74
2023-04-02T02:13:15.075Z,100755.88
2023-04-02T02:14:19.068Z,100758.17
2023-04-02T02:15:15.065Z,100760.94
2023-04-02T02:16:14.077Z,100763.96
2023-04-02T02:17:19.084Z,100762.18
2023-04-02T02:18:12.063Z,100763.34
2023-04-02T02:19:21.083Z,100767.77
2023-04-02T02:20:16.076Z,100771.71
2023-04-02T02:21:11.069Z,100767.23
2023-04-02T02:22:19.072Z,100770.57
2023-04-02T02:23:12.073Z,100773.68
2023-04-02T02:24:19.071Z,100773.84
2023-04-02T02:25:16.072Z,100775.00
2023-04-02T02:26:12.072Z,100775.36
2023-04-02T02:27:19.082Z,100776.57
2023-04-02T02:28:20.069Z,100779.86
2023-04-02T02:29:15.069Z,100779.41
2023-04-02T02:30:19.069Z,100781.07
2023-04-02T02:31:19.131Z,100785.09
2023-04-02T02:32:11.167Z,100785.90
2023-04-02T02:33:21.078Z,100787.30
2023-04-02T02:34:18.074Z,100786.90
2023-04-02T02:35:18.094Z,100789.43
2023-04-02T02:36:19.118Z,100791.46
2023-04-02T02:37:19.078Z,100797.58
2023-04-02T02:38:21.076Z,100801.89
2023-04-02T02:39:19.073Z,100796.18
2023-04-02T02:40:20.079Z,100795.22
2023-04-02T02:41:20.084Z,100794.17
2023-04-02T02:42:16.071Z,100795.38
2023-04-02T02:43:12.075Z,100796.18
2023-04-02T02:44:19.071Z,100795.95
2023-04-02T02:45:16.090Z,100794.00
2023-04-02T02:46:14.102Z,100796.15
2023-04-02T02:47:15.076Z,100797.97
2023-04-02T02:48:13.072Z,100800.59
2023-04-02T02:49:16.077Z,100800.10
2023-04-02T02:50:19.071Z,100801.84
2023-04-02T02:51:16.073Z,100804.13
2023-04-02T02:52:19.086Z,100803.22
2023-04-02T02:53:19.077Z,100808.37
2023-04-02T02:54:11.067Z,100808.22
2023-04-02T02:55:17.069Z,100807.23
2023-04-02T02:56:11.078Z,100812.02
2023-04-02T02:57:15.114Z,100814.32
2023-04-02T02:58:19.083Z,100812.28
2023-04-02T02:59:11.070Z,100811.76
2023-04-02T03:00:11.071Z,100814.56
2023-04-02T03:01:11.096Z,100812.89
2023-04-02T03:02:11.118Z,100813.05
2023-04-02T03:03:13.180Z,100817.57
2023-04-02T03:04:11.124Z,100818.35
2023-04-02T03:05:15.067Z,100820.28
2023-04-02T03:06:11.075Z,100817.94
2023-04-02T03:07:11.070Z,100821.01
2023-04-02T03:08:19.071Z,100821.08
2023-04-02T03:09:19.077Z,100822.73
2023-04-02T03:10:19.071Z,100823.43
2023-04-02T03:11:18.064Z,100826.18
2023-04-02T03:12:19.069Z,100825.20
2023-04-02T03:13:19.070Z,100826.77
2023-04-02T03:14:21.087Z,100831.89
2023-04-02T03:15:21.072Z,100827.86
2023-04-02T03:16:18.122Z,100832.65
2023-04-02T03:17:20.070Z,100831.59
2023-04-02T03:18:23.070Z,100834.14
2023-04-02T03:19:21.081Z,100834.65
2023-04-02T03:20:19.071Z,100834.88
2023-04-02T03:21:17.066Z,100841.48
2023-04-02T03:22:18.068Z,100844.33
2023-04-02T03:23:21.078Z,100844.07
2023-04-02T03:24:19.088Z,100849.05
2023-04-02T03:25:21.086Z,100851.75
2023-04-02T03:26:17.072Z,100851.76
2023-04-02T03:27:19.078Z,100853.23
2023-04-02T03:28:16.076Z,100855.66
2023-04-02T03:29:19.076Z,100856.20
2023-04-02T03:30:19.074Z,100855.65
2023-04-02T03:31:20.090Z,100854.40
2023-04-02T03:32:16.074Z,100859.32
2023-04-02T03:33:20.080Z,100858.64
2023-04-02T03:34:19.081Z,100859.26
2023-04-02T03:35:19.079Z,100863.53
2023-04-02T03:36:19.103Z,100858.80
2023-04-02T03:37:17.100Z,100862.54
2023-04-02T03:38:20.076Z,100867.79
2023-04-02T03:39:20.079Z,100867.65
2023-04-02T03:40:19.076Z,100869.01
2023-04-02T03:41:16.080Z,100872.84
2023-04-02T03:42:17.087Z,100870.72
2023-04-02T03:43:19.076Z,100875.08
2023-04-02T03:44:21.077Z,100876.95
2023-04-02T03:45:19.077Z,100874.82
2023-04-02T03:46:23.129Z,100878.39
2023-04-02T03:47:18.083Z,100885.27
2023-04-02T03:48:19.080Z,100884.07
2023-04-02T03:49:19.076Z,100884.61
2023-04-02T03:50:19.078Z,100882.19
2023-04-02T03:51:20.079Z,100884.59
2023-04-02T03:52:17.080Z,100882.36
2023-04-02T03:53:11.078Z,100882.11
2023-04-02T03:54:15.086Z,100882.66
2023-04-02T03:55:17.085Z,100886.32
2023-04-02T03:56:16.082Z,100890.48
2023-04-02T03:57:22.082Z,100888.12
2023-04-02T03:58:19.088Z,100890.78
2023-04-02T03:59:21.085Z,100891.19
2023-04-02T04:00:19.072Z,100894.28
2023-04-02T04:01:21.071Z,100893.28
2023-04-02T04:02:19.075Z,100895.36
2023-04-02T04:03:17.099Z,100898.95
2023-04-02T04:04:16.107Z,100898.15
2023-04-02T04:05:19.060Z,100901.57
2023-04-02T04:06:21.356Z,100902.31
2023-04-02T04:07:17.058Z,100902.11
2023-04-02T04:08:16.090Z,100901.15
2023-04-02T04:09:16.064Z,100903.00
2023-04-02T04:10:18.059Z,100904.84
2023-04-02T04:11:15.141Z,100901.98
2023-04-02T04:12:19.070Z,100903.76
2023-04-02T04:13:15.061Z,100904.51
2023-04-02T04:14:18.056Z,100905.99
2023-04-02T04:15:18.062Z,100906.43
2023-04-02T04:16:16.107Z,100907.18
2023-04-02T04:17:17.061Z,100906.36
2023-04-02T04:18:19.061Z,100906.36
2023-04-02T04:19:20.062Z,100909.21
2023-04-02T04:20:18.057Z,100908.60
2023-04-02T04:21:19.067Z,100909.00
2023-04-02T04:22:22.061Z,100907.87
2023-04-02T04:23:18.059Z,100906.47
2023-04-02T04:24:19.062Z,100910.48
2023-04-02T04:25:19.066Z,100908.68
2023-04-02T04:26:23.062Z,100911.56
2023-04-02T04:27:20.060Z,100913.87
2023-04-02T04:28:19.056Z,100914.35
2023-04-02T04:29:21.063Z,100914.39
2023-04-02T04:30:19.070Z,100920.95
2023-04-02T04:31:19.108Z,100917.38
2023-04-02T04:32:21.085Z,100922.18
2023-04-02T04:33:19.057Z,100922.06
2023-04-02T04:34:21.063Z,100920.92
2023-04-02T04:35:19.070Z,100920.14
2023-04-02T04:36:19.084Z,100920.38
2023-04-02T04:37:19.062Z,100925.08
2023-04-02T04:38:19.066Z,100924.36
2023-04-02T04:39:16.071Z,100928.03
2023-04-02T04:40:19.083Z,100925.91
2023-04-02T04:41:16.066Z,100924.25
2023-04-02T04:42:18.069Z,100928.00
2023-04-02T04:43:18.075Z,100924.11
2023-04-02T04:44:21.065Z,100926.48
2023-04-02T04:45:21.062Z,100932.35
2023-04-02T04:46:20.090Z,100932.56
2023-04-02T04:47:17.068Z,100932.47
2023-04-02T04:48:18.067Z,100933.27
2023-04-02T04:49:17.069Z,100933.71
2023-04-02T04:50:19.072Z,100931.21
2023-04-02T04:51:21.066Z,100932.70
2023-04-02T04:52:17.067Z,100937.64
2023-04-02T04:53:16.068Z,100941.12
2023-04-02T04:54:14.068Z,100941.04
2023-04-02T04:55:19.082Z,100938.50
2023-04-02T04:57:19.096Z,100940.83
2023-04-02T04:58:20.064Z,100946.91
2023-04-02T04:59:19.070Z,100949.95
2023-04-02T05:00:22.087Z,100947.04
2023-04-02T05:01:22.115Z,100948.43
2023-04-02T05:02:18.080Z,100954.65
2023-04-02T05:03:19.067Z,100956.28
2023-04-02T05:04:19.083Z,100957.59
2023-04-02T05:05:19.089Z,100959.88
2023-04-02T05:06:23.070Z,100961.84
2023-04-02T05:07:17.072Z,100964.87
2023-04-02T05:08:21.087Z,100965.22
2023-04-02T05:09:19.067Z,100968.09
2023-04-02T05:10:19.063Z,100969.74
2023-04-02T05:11:21.123Z,100969.66
2023-04-02T05:12:21.073Z,100968.15
2023-04-02T05:13:23.066Z,100972.04
2023-04-02T05:14:19.071Z,100975.36
2023-04-02T05:15:21.063Z,100973.37
2023-04-02T05:16:22.086Z,100975.20
2023-04-02T05:17:21.073Z,100978.06
2023-04-02T05:18:19.071Z,100978.57
2023-04-02T05:19:19.077Z,100982.41
2023-04-02T05:20:23.062Z,100987.63
2023-04-02T05:21:19.062Z,100986.64
2023-04-02T05:22:19.065Z,100989.18
2023-04-02T05:23:21.075Z,100991.20
2023-04-02T05:24:19.072Z,100991.62
2023-04-02T05:25:20.070Z,100991.56
2023-04-02T05:26:20.061Z,100995.27
2023-04-02T05:27:21.098Z,100994.39
2023-04-02T05:28:21.080Z,100996.97
2023-04-02T05:29:16.075Z,100996.16
2023-04-02T05:30:20.167Z,100996.15
2023-04-02T05:31:18.089Z,100998.96
2023-04-02T05:32:17.070Z,100999.23
2023-04-02T05:33:19.068Z,100999.69
2023-04-02T05:34:11.079Z,101000.30
2023-04-02T05:35:15.065Z,101004.59
2023-04-02T05:36:12.080Z,101004.41
2023-04-02T05:37:19.075Z,101008.54
2023-04-02T05:38:15.068Z,101008.27
2023-04-02T05:39:11.103Z,101011.09
2023-04-02T05:40:19.076Z,101012.37
2023-04-02T05:41:23.072Z,101018.08
2023-04-02T05:42:21.077Z,101015.12
2023-04-02T05:43:17.075Z,101015.66
2023-04-02T05:44:21.067Z,101020.01
2023-04-02T05:45:19.072Z,101018.87
2023-04-02T05:46:16.104Z,101021.70
2023-04-02T05:47:19.074Z,101023.18
2023-04-02T05:48:18.075Z,101027.73
2023-04-02T05:49:18.108Z,101027.89
2023-04-02T05:50:19.072Z,101032.01
2023-04-02T05:51:17.080Z,101033.09
2023-04-02T05:52:17.073Z,101036.82
2023-04-02T05:53:19.074Z,101033.39
2023-04-02T05:54:19.071Z,101036.45
2023-04-02T05:55:21.078Z,101035.84
2023-04-02T05:56:20.072Z,101038.08
2023-04-02T05:57:19.442Z,101034.95
2023-04-02T05:58:34.607Z,101041.53
2023-04-02T05:59:21.084Z,101040.99
2023-04-02T06:00:19.080Z,101038.64
2023-04-02T06:01:21.130Z,101042.95
2023-04-02T06:02:19.107Z,101042.70
2023-04-02T06:03:21.143Z,101045.64
2023-04-02T06:04:19.071Z,101050.04
2023-04-02T06:05:15.074Z,101052.89
2023-04-02T06:06:21.081Z,101056.18
2023-04-02T06:07:15.071Z,101055.38
2023-04-02T06:08:17.070Z,101057.60
2023-04-02T06:09:19.078Z,101056.64
2023-04-02T06:10:22.838Z,101056.85
2023-04-02T06:11:19.076Z,101061.21
2023-04-02T06:12:19.068Z,101060.43
2023-04-02T06:13:11.089Z,101058.83
2023-04-02T06:14:13.082Z,101063.16
2023-04-02T06:15:15.084Z,101064.30
2023-04-02T06:16:14.109Z,101068.04
2023-04-02T06:17:16.081Z,101068.25
2023-04-02T06:18:15.071Z,101068.85
2023-04-02T06:19:19.083Z,101067.98
2023-04-02T06:20:15.072Z,101070.73
2023-04-02T06:21:12.080Z,101070.00
2023-04-02T06:22:22.073Z,101071.22
2023-04-02T06:23:19.072Z,101071.34
2023-04-02T06:24:15.083Z,101069.09
2023-04-02T06:25:19.074Z,101070.05
2023-04-02T06:26:19.071Z,101075.22
2023-04-02T06:27:12.081Z,101078.04
2023-04-02T06:28:16.086Z,101080.73
2023-04-02T06:29:19.072Z,101081.19
2023-04-02T06:30:17.074Z,101083.23
2023-04-02T06:31:17.102Z,101086.34
2023-04-02T06:32:11.078Z,101087.93
2023-04-02T06:33:11.074Z,101088.14
2023-04-02T06:34:18.077Z,101097.31
2023-04-02T06:35:14.088Z,101098.86
2023-04-02T06:36:11.124Z,101091.95
2023-04-02T06:37:21.104Z,101095.10
2023-04-02T06:38:19.075Z,101104.59
2023-04-02T06:39:16.119Z,101105.12
2023-04-02T06:40:19.079Z,101100.93
2023-04-02T06:41:19.077Z,101104.72
2023-04-02T06:42:17.078Z,101105.83
2023-04-02T06:43:19.091Z,101109.77
2023-04-02T06:44:19.077Z,101111.18
2023-04-02T06:45:18.076Z,101117.78
2023-04-02T06:46:21.132Z,101116.73
2023-04-02T06:47:19.078Z,101121.04
2023-04-02T06:48:15.086Z,101122.86
2023-04-02T06:49:18.085Z,101132.82
2023-04-02T06:50:16.078Z,101135.23
2023-04-02T06:51:15.085Z,101138.15
2023-04-02T06:52:19.082Z,101140.12
2023-04-02T06:53:19.078Z,101142.73
2023-04-02T06:54:15.084Z,101147.43
2023-04-02T06:55:19.090Z,101149.79
2023-04-02T06:56:19.080Z,101147.56
2023-04-02T06:57:12.112Z,101152.76
2023-04-02T06:58:11.093Z,101149.25
2023-04-02T06:59:11.084Z,101152.83
2023-04-02T07:00:19.070Z,101153.46
2023-04-02T07:01:15.105Z,101158.03
2023-04-02T07:02:22.065Z,101160.64
2023-04-02T07:03:16.074Z,101158.30
2023-04-02T07:04:11.067Z,101162.77
2023-04-02T07:05:11.106Z,101164.50
2023-04-02T07:06:18.077Z,101167.69
2023-04-02T07:07:11.062Z,101167.60
2023-04-02T07:08:11.067Z,101172.61
2023-04-02T07:09:11.061Z,101170.73
2023-04-02T07:10:11.064Z,101175.85
2023-04-02T07:11:13.060Z,101177.34
2023-04-02T07:12:13.061Z,101179.62
2023-04-02T07:13:16.068Z,101178.36
2023-04-02T07:14:12.059Z,101179.82
2023-04-02T07:15:14.063Z,101182.79
2023-04-02T07:16:19.121Z,101187.03
2023-04-02T07:17:15.061Z,101188.72
2023-04-02T07:18:19.064Z,101190.66
2023-04-02T07:19:18.064Z,101192.73
2023-04-02T07:20:19.067Z,101194.03
2023-04-02T07:21:11.060Z,101196.32
2023-04-02T07:22:11.059Z,101193.37
2023-04-02T07:23:11.059Z,101193.41
2023-04-02T07:24:11.067Z,101194.37
2023-04-02T07:25:11.059Z,101195.40
2023-04-02T07:26:14.059Z,101196.41
2023-04-02T07:27:11.065Z,101194.12
2023-04-02T07:28:11.065Z,101191.01
2023-04-02T07:29:14.062Z,101190.84
2023-04-02T07:30:11.060Z,101191.97
2023-04-02T07:31:18.113Z,101193.40
2023-04-02T07:32:14.142Z,101195.59
2023-04-02T07:33:14.114Z,101194.96
2023-04-02T07:34:11.064Z,101199.75
2023-04-02T07:35:11.064Z,101196.53
2023-04-02T07:36:16.095Z,101195.96
2023-04-02T07:37:13.084Z,101198.61
2023-04-02T07:38:11.062Z,101197.77
2023-04-02T07:39:11.075Z,101198.70
2023-04-02T07:40:18.067Z,101201.04
2023-04-02T07:41:11.062Z,101205.21
2023-04-02T07:42:11.069Z,101211.77
2023-04-02T07:43:11.065Z,101215.89
2023-04-02T07:44:11.063Z,101217.98
2023-04-02T07:45:11.066Z,101220.91
2023-04-02T07:46:11.079Z,101218.70
2023-04-02T07:47:11.063Z,101227.74
2023-04-02T07:48:11.063Z,101225.32
2023-04-02T07:49:11.069Z,101225.25
2023-04-02T07:50:11.082Z,101223.64
2023-04-02T07:51:18.070Z,101225.27
2023-04-02T07:52:11.068Z,101233.48
2023-04-02T07:53:19.065Z,101228.51
2023-04-02T07:54:11.062Z,101233.45
2023-04-02T07:55:11.073Z,101229.77
2023-04-02T07:56:13.072Z,101229.73
2023-04-02T07:57:11.132Z,101232.57
2023-04-02T07:58:11.067Z,101239.20
2023-04-02T07:59:11.075Z,101235.16
2023-04-02T08:00:11.065Z,101232.97
2023-04-02T08:01:16.064Z,101235.86
2023-04-02T08:02:19.093Z,101234.00
2023-04-02T08:03:11.123Z,101237.85
2023-04-02T08:04:18.257Z,101233.38
2023-04-02T08:05:11.067Z,101238.25
2023-04-02T08:06:11.064Z,101239.72
2023-04-02T08:07:11.066Z,101236.50
2023-04-02T08:08:11.063Z,101234.77
2023-04-02T08:09:11.069Z,101238.51
2023-04-02T08:10:11.065Z,101239.01
2023-04-02T08:11:11.067Z,101243.00
2023-04-02T08:12:13.073Z,101245.84
2023-04-02T08:13:11.065Z,101247.81
2023-04-02T08:14:12.064Z,101250.75
2023-04-02T08:15:13.066Z,101251.02
2023-04-02T08:16:11.087Z,101253.00
2023-04-02T08:17:11.065Z,101251.11
2023-04-02T08:18:11.098Z,101257.30
2023-04-02T08:19:11.076Z,101258.38
2023-04-02T08:20:15.065Z,101261.55
2023-04-02T08:21:11.077Z,101259.57
2023-04-02T08:22:11.075Z,101263.63
2023-04-02T08:23:15.072Z,101270.75
2023-04-02T08:24:11.067Z,101273.21
2023-04-02T08:25:11.073Z,101276.54
2023-04-02T08:26:11.070Z,101276.58
2023-04-02T08:27:13.064Z,101279.69
2023-04-02T08:28:11.070Z,101286.22
2023-04-02T08:29:11.068Z,101279.55
2023-04-02T08:30:12.083Z,101275.14
2023-04-02T08:31:12.116Z,101275.09
2023-04-02T08:32:11.082Z,101272.79
2023-04-02T08:33:11.108Z,101276.45
2023-04-02T08:34:11.086Z,101272.15
2023-04-02T08:35:14.072Z,101276.18
2023-04-02T08:36:15.078Z,101275.00
2023-04-02T08:37:11.071Z,101278.64
2023-04-02T08:38:13.070Z,101279.51
2023-04-02T08:39:11.072Z,101277.61
2023-04-02T08:40:19.115Z,101280.84
2023-04-02T08:41:15.075Z,101282.96
2023-04-02T08:42:19.072Z,101282.66
2023-04-02T08:43:19.077Z,101291.19
2023-04-02T08:44:21.073Z,101290.36
2023-04-02T08:45:24.930Z,101294.70
2023-04-02T08:46:19.393Z,101295.64
2023-04-02T08:47:11.070Z,101297.30
2023-04-02T08:48:12.077Z,101299.66
2023-04-02T08:49:16.073Z,101301.38
2023-04-02T08:50:19.078Z,101295.33
2023-04-02T08:51:19.071Z,101300.68
2023-04-02T08:52:19.094Z,101293.21
2023-04-02T08:53:19.084Z,101298.44
2023-04-02T08:54:19.077Z,101302.32
2023-04-02T08:55:22.070Z,101299.70
2023-04-02T08:56:19.069Z,101300.16
2023-04-02T08:57:19.272Z,101305.84
2023-04-02T08:58:19.069Z,101305.79
2023-04-02T08:59:19.081Z,101305.30
2023-04-02T09:00:19.101Z,101306.46
2023-04-02T09:01:19.164Z,101310.32
2023-04-02T09:02:19.070Z,101313.80
2023-04-02T09:03:13.072Z,101312.66
2023-04-02T09:04:16.107Z,101312.22
2023-04-02T09:05:20.068Z,101312.81
2023-04-02T09:06:12.068Z,101315.46
2023-04-02T09:07:14.077Z,101321.94
2023-04-02T09:08:21.072Z,101313.11
2023-04-02T09:09:12.071Z,101316.42
2023-04-02T09:10:17.086Z,101318.39
2023-04-02T09:11:23.073Z,101319.87
2023-04-02T09:12:19.079Z,101325.41
2023-04-02T09:13:17.068Z,101331.22
2023-04-02T09:14:19.073Z,101331.94
2023-04-02T09:15:21.080Z,101337.61
2023-04-02T09:16:11.119Z,101339.81
2023-04-02T09:17:20.073Z,101344.95
2023-04-02T09:18:16.127Z,101348.07
2023-04-02T09:19:16.076Z,101345.75
2023-04-02T09:20:16.156Z,101350.41
2023-04-02T09:21:19.088Z,101351.69
2023-04-02T09:22:15.072Z,101350.92
2023-04-02T09:23:18.072Z,101352.54
2023-04-02T09:24:13.091Z,101348.95
2023-04-02T09:25:17.081Z,101350.91
2023-04-02T09:26:21.075Z,101353.80
2023-04-02T09:27:19.072Z,101353.61
2023-04-02T09:28:13.070Z,101356.55
2023-04-02T09:29:19.092Z,101356.91
2023-04-02T09:30:21.076Z,101358.94
2023-04-02T09:31:20.169Z,101357.82
2023-04-02T09:32:19.085Z,101355.67
2023-04-02T09:33:12.158Z,101358.28
2023-04-02T09:34:19.092Z,101361.96
2023-04-02T09:35:24.550Z,101365.32
2023-04-02T09:36:20.096Z,101359.17
2023-04-02T09:37:16.080Z,101361.04
2023-04-02T09:38:18.084Z,101365.46
2023-04-02T09:39:18.077Z,101363.43
2023-04-02T09:40:19.075Z,101367.48
2023-04-02T09:41:19.076Z,101371.00
2023-04-02T09:42:19.077Z,101370.28
2023-04-02T09:43:15.088Z,101371.07
2023-04-02T09:44:18.082Z,101373.76
2023-04-02T09:45:21.077Z,101371.25
2023-04-02T09:46:21.106Z,101370.29
2023-04-02T09:47:19.083Z,101366.17
2023-04-02T09:48:21.086Z,101371.52
2023-04-02T09:49:15.079Z,101373.12
2023-04-02T09:50:19.077Z,101372.11
2023-04-02T09:51:19.080Z,101372.54
2023-04-02T09:52:23.076Z,101378.07
2023-04-02T09:53:19.098Z,101377.21
2023-04-02T09:54:14.085Z,101379.52
2023-04-02T09:55:18.075Z,101386.05
2023-04-02T09:56:18.073Z,101381.52
2023-04-02T09:57:19.090Z,101383.27
2023-04-02T09:58:14.088Z,101380.46
2023-04-02T09:59:15.089Z,101380.42
2023-04-02T10:01:22.095Z,101386.06
2023-04-02T10:02:19.065Z,101386.95
2023-04-02T10:03:21.065Z,101388.24
2023-04-02T10:04:19.086Z,101387.34
2023-04-02T10:05:26.577Z,101392.76
2023-04-02T10:06:16.810Z,101394.30
2023-04-02T10:07:19.063Z,101396.93
2023-04-02T10:08:19.060Z,101397.07
2023-04-02T10:09:19.060Z,101398.83
2023-04-02T10:10:21.089Z,101403.66
2023-04-02T10:11:16.060Z,101401.33
2023-04-02T10:12:13.068Z,101398.94
2023-04-02T10:13:19.063Z,101397.43
2023-04-02T10:14:21.096Z,101396.34
2023-04-02T10:15:16.071Z,101398.12
2023-04-02T10:16:19.091Z,101403.66
2023-04-02T10:17:17.121Z,101397.52
2023-04-02T10:18:21.061Z,101406.40
2023-04-02T10:19:21.083Z,101404.62
2023-04-02T10:20:19.068Z,101410.59
2023-04-02T10:21:13.061Z,101412.62
2023-04-02T10:22:18.070Z,101413.86
2023-04-02T10:23:16.067Z,101414.27
2023-04-02T10:24:14.063Z,101414.82
2023-04-02T10:25:17.070Z,101419.10
2023-04-02T10:26:19.064Z,101417.93
2023-04-02T10:27:21.063Z,101421.65
2023-04-02T10:28:21.069Z,101418.41
2023-04-02T10:29:19.063Z,101421.89
2023-04-02T10:30:19.130Z,101418.08
2023-04-02T10:31:19.093Z,101422.08
2023-04-02T10:32:19.063Z,101421.94
2023-04-02T10:33:21.064Z,101424.04
2023-04-02T10:34:18.073Z,101424.18
2023-04-02T10:35:19.066Z,101430.77
2023-04-02T10:36:21.065Z,101428.60
2023-04-02T10:37:21.063Z,101429.48
2023-04-02T10:38:21.068Z,101429.60
2023-04-02T10:39:19.069Z,101433.21
2023-04-02T10:40:21.076Z,101432.44
2023-04-02T10:41:19.085Z,101434.98
2023-04-02T10:42:21.069Z,101434.52
2023-04-02T10:43:21.064Z,101438.38
2023-04-02T10:44:20.722Z,101438.66
2023-04-02T10:45:19.072Z,101440.94
2023-04-02T10:46:19.152Z,101440.95
2023-04-02T10:47:21.065Z,101447.48
2023-04-02T10:48:21.063Z,101451.45
2023-04-02T10:49:21.128Z,101454.42
2023-04-02T10:50:21.075Z,101454.78
2023-04-02T10:51:19.082Z,101459.83
2023-04-02T10:52:19.069Z,101459.59
2023-04-02T10:53:18.067Z,101461.30
2023-04-02T10:54:19.068Z,101462.94
2023-04-02T10:55:18.088Z,101465.05
2023-04-02T10:56:13.076Z,101460.52
2023-04-02T10:57:17.135Z,101461.57
2023-04-02T10:58:19.066Z,101463.27
2023-04-02T10:59:19.070Z,101449.88
2023-04-02T11:00:20.083Z,101463.57
2023-04-02T11:01:17.125Z,101462.30
2023-04-02T11:02:19.073Z,101464.36
2023-04-02T11:03:16.161Z,101461.37
2023-04-02T11:04:18.068Z,101466.20
2023-04-02T11:05:18.076Z,101465.91
2023-04-02T11:06:21.075Z,101465.29
2023-04-02T11:07:19.074Z,101465.66
2023-04-02T11:08:19.071Z,101468.16
2023-04-02T11:09:17.076Z,101466.85
2023-04-02T11:10:16.077Z,101467.02
2023-04-02T11:11:19.070Z,101468.78
2023-04-02T11:12:17.066Z,101472.77
2023-04-02T11:13:19.073Z,101473.03
2023-04-02T11:14:22.074Z,101474.99
2023-04-02T11:15:18.096Z,101476.95
2023-04-02T11:16:11.108Z,101474.92
2023-04-02T11:17:15.067Z,101475.93
2023-04-02T11:18:19.084Z,101477.52
2023-04-02T11:19:21.073Z,101481.11
2023-04-02T11:20:19.066Z,101483.30
2023-04-02T11:21:19.071Z,101479.31
2023-04-02T11:22:16.079Z,101480.82
2023-04-02T11:23:17.069Z,101484.61
2023-04-02T11:24:19.068Z,101487.27
2023-04-02T11:25:19.071Z,101489.87
2023-04-02T11:26:19.072Z,101488.32